createdAt,value
2023-07-18T00:00:17.301Z,100318.59
2023-07-18T00:01:30.592Z,100319.69
2023-07-18T00:02:41.530Z,100320.50
2023-07-18T00:03:50.983Z,100315.03
2023-07-18T00:04:59.241Z,100322.16
2023-07-18T00:06:08.112Z,100323.56
2023-07-18T00:07:18.988Z,100320.84
2023-07-18T00:08:28.389Z,100325.47
2023-07-18T00:09:34.947Z,100326.28
2023-07-18T00:10:41.770Z,100336.13
2023-07-18T00:11:57.256Z,100333.41
2023-07-18T00:13:09.694Z,100328.75
2023-07-18T00:14:15.331Z,100327.13
2023-07-18T00:15:27.542Z,100333.41
2023-07-18T00:16:35.476Z,100336.13
2023-07-18T00:17:46.787Z,100327.13
2023-07-18T00:18:57.671Z,100326.03
2023-07-18T00:20:11.376Z,100327.69
2023-07-18T00:21:17.234Z,100330.41
2023-07-18T00:22:29.103Z,100334.78
2023-07-18T00:23:45.027Z,100334.78
2023-07-18T00:24:54.409Z,100338.34
2023-07-18T00:25:59.858Z,100333.69
2023-07-18T00:27:07.709Z,100334.53
2023-07-18T00:28:16.811Z,100336.22
2023-07-18T00:29:26.402Z,100340.59
2023-07-18T00:30:32.002Z,100343.88
2023-07-18T00:31:38.883Z,100343.06
2023-07-18T00:32:47.497Z,100336.78
2023-07-18T00:33:56.158Z,100339.50
2023-07-18T00:35:01.535Z,100343.63
2023-07-18T00:36:09.188Z,100346.13
2023-07-18T00:37:18.667Z,100348.84
2023-07-18T00:38:28.312Z,100348.03
2023-07-18T00:39:41.866Z,100353.22
2023-07-18T00:40:51.680Z,100354.88
2023-07-18T00:41:59.921Z,100351.31
2023-07-18T00:43:06.675Z,100350.81
2023-07-18T00:44:16.043Z,100345.94
2023-07-18T00:45:29.577Z,100349.22
2023-07-18T00:46:38.101Z,100345.41
2023-07-18T00:47:50.030Z,100349.56
2023-07-18T00:48:55.744Z,100356.19
2023-07-18T00:50:06.674Z,100347.72
2023-07-18T00:51:12.413Z,100357.06
2023-07-18T00:52:20.031Z,100356.00
2023-07-18T00:53:32.688Z,100350.81
2023-07-18T00:54:39.890Z,100349.78
2023-07-18T00:55:53.318Z,100355.78
2023-07-18T00:57:03.239Z,100353.63
2023-07-18T00:58:20.879Z,100356.94
2023-07-18T00:59:30.497Z,100359.69
2023-07-18T01:00:49.238Z,100353.97
2023-07-18T01:02:08.520Z,100356.69
2023-07-18T01:03:14.918Z,100358.94
2023-07-18T01:04:23.906Z,100359.75
2023-07-18T01:05:39.000Z,100363.06
2023-07-18T01:06:49.498Z,100365.28
2023-07-18T01:07:59.966Z,100367.53
2023-07-18T01:09:16.720Z,100369.16
2023-07-18T01:10:29.148Z,100357.97
2023-07-18T01:11:44.995Z,100365.94
2023-07-18T01:12:53.545Z,100357.47
2023-07-18T01:14:14.291Z,100366.25
2023-07-18T01:15:35.207Z,100368.22
2023-07-18T01:16:45.229Z,100375.66
2023-07-18T01:17:55.602Z,100368.28
2023-07-18T01:19:06.923Z,100371.56
2023-07-18T01:20:14.967Z,100379.28
2023-07-18T01:21:25.811Z,100375.19
2023-07-18T01:22:33.976Z,100376.59
2023-07-18T01:23:50.447Z,100371.69
2023-07-18T01:24:57.480Z,100366.53
2023-07-18T01:27:27.420Z,100382.69
2023-07-18T01:28:34.384Z,100376.69
2023-07-18T01:29:51.462Z,100389.03
2023-07-18T01:30:58.732Z,100389.59
2023-07-18T01:32:04.274Z,100384.72
2023-07-18T01:33:15.915Z,100387.19
2023-07-18T01:34:29.455Z,100391.56
2023-07-18T01:35:36.844Z,100389.16
2023-07-18T01:37:00.343Z,100378.78
2023-07-18T01:38:07.250Z,100381.88
2023-07-18T01:39:12.811Z,100378.03
2023-07-18T01:40:22.909Z,100374.22
2023-07-18T01:41:37.120Z,100378.31
2023-07-18T01:42:45.383Z,100376.19
2023-07-18T01:43:50.986Z,100374.59
2023-07-18T01:45:00.822Z,100375.97
2023-07-18T01:46:06.467Z,100385.56
2023-07-18T01:47:13.355Z,100378.19
2023-07-18T01:48:19.457Z,100382.31
2023-07-18T01:49:26.347Z,100371.94
2023-07-18T01:50:32.003Z,100376.06
2023-07-18T01:51:40.144Z,100373.06
2023-07-18T01:52:47.649Z,100370.88
2023-07-18T01:54:01.166Z,100375.84
2023-07-18T01:55:07.655Z,100374.75
2023-07-18T01:56:17.367Z,100367.09
2023-07-18T01:57:22.946Z,100368.25
2023-07-18T01:58:34.910Z,100366.91
2023-07-18T01:59:45.947Z,100360.91
2023-07-18T02:00:57.469Z,100368.59
2023-07-18T02:02:05.906Z,100368.06
2023-07-18T02:03:12.865Z,100363.41
2023-07-18T02:04:22.430Z,100367.56
2023-07-18T02:05:34.704Z,100371.94
2023-07-18T02:06:46.734Z,100364.28
2023-07-18T02:08:00.980Z,100374.13
2023-07-18T02:09:08.219Z,100367.38
2023-07-18T02:10:16.322Z,100361.34
2023-07-18T02:11:35.284Z,100362.75
2023-07-18T02:12:42.132Z,100366.31
2023-07-18T02:13:47.663Z,100367.13
2023-07-18T02:14:58.996Z,100374.84
2023-07-18T02:16:04.558Z,100375.13
2023-07-18T02:17:14.239Z,100364.75
2023-07-18T02:18:21.682Z,100360.66
2023-07-18T02:19:28.714Z,100369.16
2023-07-18T02:20:36.175Z,100368.63
2023-07-18T02:21:46.233Z,100364.56
2023-07-18T02:22:55.883Z,100367.56
2023-07-18T02:24:07.713Z,100365.97
2023-07-18T02:26:38.041Z,100373.63
2023-07-18T02:27:44.552Z,100368.72
2023-07-18T02:28:57.324Z,100366.81
2023-07-18T02:30:03.713Z,100364.63
2023-07-18T02:31:10.608Z,100368.19
2023-07-18T02:32:16.177Z,100362.47
2023-07-18T02:33:23.034Z,100371.22
2023-07-18T02:34:34.483Z,100377.84
2023-07-18T02:35:41.395Z,100374.81
2023-07-18T02:36:50.051Z,100377.03
2023-07-18T02:39:20.102Z,100389.16
2023-07-18T02:40:29.576Z,100387.81
2023-07-18T02:41:36.960Z,100390.00
2023-07-18T02:42:46.092Z,100386.75
2023-07-18T02:43:51.682Z,100387.31
2023-07-18T02:44:58.519Z,100389.53
2023-07-18T02:46:04.114Z,100393.09
2023-07-18T02:47:13.869Z,100394.22
2023-07-18T02:48:22.171Z,100398.63
2023-07-18T02:49:29.315Z,100395.91
2023-07-18T02:50:34.836Z,100399.75
2023-07-18T02:51:41.733Z,100409.94
2023-07-18T02:52:50.573Z,100404.47
2023-07-18T02:54:00.127Z,100389.38
2023-07-18T02:55:06.250Z,100395.41
2023-07-18T02:56:14.130Z,100397.66
2023-07-18T02:57:20.123Z,100392.47
2023-07-18T02:58:29.652Z,100398.22
2023-07-18T02:59:40.699Z,100401.25
2023-07-18T03:00:49.598Z,100398.78
2023-07-18T03:02:09.389Z,100401.00
2023-07-18T03:03:25.324Z,100407.31
2023-07-18T03:04:33.965Z,100407.03
2023-07-18T03:05:40.703Z,100412.25
2023-07-18T03:06:46.280Z,100414.16
2023-07-18T03:07:53.626Z,100412.50
2023-07-18T03:09:08.586Z,100413.91
2023-07-18T03:10:22.337Z,100415.81
2023-07-18T03:11:30.524Z,100422.41
2023-07-18T03:12:37.613Z,100424.88
2023-07-18T03:14:47.703Z,100421.81
2023-07-18T03:15:53.161Z,100423.47
2023-07-18T03:17:02.491Z,100434.44
2023-07-18T03:18:08.314Z,100431.44
2023-07-18T03:19:26.341Z,100441.84
2023-07-18T03:20:31.894Z,100427.59
2023-07-18T03:21:43.647Z,100433.91
2023-07-18T03:22:53.077Z,100436.34
2023-07-18T03:24:12.816Z,100425.63
2023-07-18T03:25:18.831Z,100438.47
2023-07-18T03:26:30.439Z,100434.63
2023-07-18T03:27:35.991Z,100429.94
2023-07-18T03:28:47.069Z,100437.34
2023-07-18T03:29:54.518Z,100445.81
2023-07-18T03:31:08.866Z,100447.50
2023-07-18T03:32:14.625Z,100446.09
2023-07-18T03:33:28.807Z,100453.50
2023-07-18T03:34:34.621Z,100440.88
2023-07-18T03:35:41.504Z,100441.44
2023-07-18T03:36:48.515Z,100445.56
2023-07-18T03:37:54.177Z,100448.59
2023-07-18T03:39:01.094Z,100452.44
2023-07-18T03:40:12.553Z,100446.69
2023-07-18T03:41:27.558Z,100449.22
2023-07-18T03:42:35.509Z,100447.84
2023-07-18T03:43:42.434Z,100445.09
2023-07-18T03:44:48.070Z,100450.31
2023-07-18T03:45:59.659Z,100450.06
2023-07-18T03:47:20.066Z,100454.44
2023-07-18T03:48:29.128Z,100457.75
2023-07-18T03:49:37.561Z,100444.84
2023-07-18T03:50:45.022Z,100447.31
2023-07-18T03:51:53.908Z,100445.41
2023-07-18T03:53:03.790Z,100449.53
2023-07-18T03:54:19.696Z,100441.84
2023-07-18T03:55:27.257Z,100440.22
2023-07-18T03:56:40.825Z,100449.81
2023-07-18T03:57:54.660Z,100446.00
2023-07-18T03:59:17.553Z,100442.97
2023-07-18T04:00:33.642Z,100445.16
2023-07-18T04:01:41.024Z,100438.63
2023-07-18T04:02:51.187Z,100441.09
2023-07-18T04:03:56.783Z,100446.84
2023-07-18T04:05:06.101Z,100426.53
2023-07-18T04:06:11.866Z,100438.63
2023-07-18T04:07:21.591Z,100443.53
2023-07-18T04:08:30.795Z,100446.56
2023-07-18T04:09:37.513Z,100433.13
2023-07-18T04:10:45.768Z,100442.44
2023-07-18T04:11:57.441Z,100439.13
2023-07-18T04:13:10.190Z,100444.06
2023-07-18T04:14:22.883Z,100442.44
2023-07-18T04:15:29.104Z,100439.69
2023-07-18T04:16:38.472Z,100442.13
2023-07-18T04:18:00.561Z,100443.50
2023-07-18T04:19:10.650Z,100442.41
2023-07-18T04:20:22.502Z,100443.50
2023-07-18T04:28:09.186Z,100433.19
2023-07-18T04:29:21.914Z,100438.66
2023-07-18T04:30:31.819Z,100432.94
2023-07-18T04:31:39.856Z,100435.41
2023-07-18T04:32:49.345Z,100425.25
2023-07-18T04:33:55.066Z,100427.72
2023-07-18T04:35:01.885Z,100425.56
2023-07-18T04:36:08.866Z,100435.44
2023-07-18T04:37:17.751Z,100426.38
2023-07-18T04:38:23.300Z,100424.72
2023-07-18T04:39:30.643Z,100422.25
2023-07-18T04:40:38.452Z,100422.25
2023-07-18T04:41:54.646Z,100430.19
2023-07-18T04:43:05.797Z,100414.31
2023-07-18T04:44:12.838Z,100419.53
2023-07-18T04:45:20.459Z,100419.00
2023-07-18T04:46:27.257Z,100422.28
2023-07-18T04:47:33.176Z,100419.28
2023-07-18T04:48:40.182Z,100424.53
2023-07-18T04:49:47.814Z,100418.78
2023-07-18T04:51:03.628Z,100415.75
2023-07-18T04:52:10.184Z,100418.22
2023-07-18T04:53:17.420Z,100410.56
2023-07-18T04:54:22.863Z,100410.00
2023-07-18T04:55:29.805Z,100409.19
2023-07-18T04:56:35.104Z,100414.41
2023-07-18T04:57:41.968Z,100401.50
2023-07-18T04:58:51.758Z,100406.47
2023-07-18T04:59:58.734Z,100407.00
2023-07-18T05:01:07.590Z,100404.84
2023-07-18T05:02:16.482Z,100408.41
2023-07-18T05:03:24.591Z,100401.81
2023-07-18T05:04:40.636Z,100397.44
2023-07-18T05:05:50.823Z,100394.97
2023-07-18T05:07:01.541Z,100400.72
2023-07-18T05:08:23.309Z,100395.81
2023-07-18T05:09:30.791Z,100405.69
2023-07-18T05:11:56.930Z,100402.38
2023-07-18T05:13:08.293Z,100407.88
2023-07-18T05:14:24.219Z,100407.88
2023-07-18T05:15:29.625Z,100406.22
2023-07-18T05:16:45.741Z,100400.44
2023-07-18T05:17:54.350Z,100399.09
2023-07-18T05:20:35.810Z,100390.31
2023-07-18T05:21:45.101Z,100399.06
2023-07-18T05:22:50.635Z,100395.19
2023-07-18T05:23:57.334Z,100394.66
2023-07-18T05:25:07.697Z,100397.13
2023-07-18T05:26:16.832Z,100399.25
2023-07-18T05:27:33.162Z,100405.28
2023-07-18T05:28:40.253Z,100396.25
2023-07-18T05:29:47.526Z,100396.78
2023-07-18T05:30:54.492Z,100392.66
2023-07-18T05:32:00.207Z,100397.84
2023-07-18T05:33:07.285Z,100388.50
2023-07-18T05:34:12.868Z,100388.50
2023-07-18T05:35:21.776Z,100393.44
2023-07-18T05:36:30.560Z,100393.44
2023-07-18T05:37:42.989Z,100379.19
2023-07-18T05:38:51.384Z,100387.38
2023-07-18T05:40:01.542Z,100383.53
2023-07-18T05:41:09.798Z,100383.81
2023-07-18T05:42:25.772Z,100386.28
2023-07-18T05:43:34.363Z,100381.63
2023-07-18T05:44:50.692Z,100408.22
2023-07-18T05:46:00.121Z,100380.22
2023-07-18T05:47:07.141Z,100384.88
2023-07-18T05:48:12.679Z,100376.94
2023-07-18T05:49:19.844Z,100373.69
2023-07-18T05:50:25.467Z,100380.53
2023-07-18T05:51:37.362Z,100372.56
2023-07-18T05:52:43.029Z,100373.69
2023-07-18T05:53:50.049Z,100378.59
2023-07-18T05:54:58.430Z,100370.63
2023-07-18T05:56:08.165Z,100362.38
2023-07-18T05:57:16.238Z,100362.94
2023-07-18T05:58:28.889Z,100365.16
2023-07-18T05:59:37.179Z,100366.53
2023-07-18T06:00:44.637Z,100362.44
2023-07-18T06:01:54.589Z,100362.97
2023-07-18T06:03:01.534Z,100356.16
2023-07-18T06:04:09.841Z,100356.97
2023-07-18T06:05:20.320Z,100353.69
2023-07-18T06:06:28.481Z,100344.09
2023-07-18T06:07:35.458Z,100348.50
2023-07-18T06:08:41.314Z,100355.13
2023-07-18T06:09:48.594Z,100348.78
2023-07-18T06:10:59.682Z,100345.28
2023-07-18T06:12:06.702Z,100344.19
2023-07-18T06:13:12.592Z,100346.13
2023-07-18T06:14:19.578Z,100347.25
2023-07-18T06:15:25.426Z,100341.19
2023-07-18T06:16:35.067Z,100340.91
2023-07-18T06:17:42.363Z,100334.91
2023-07-18T06:18:54.660Z,100339.31
2023-07-18T06:20:00.271Z,100333.81
2023-07-18T06:21:11.887Z,100324.53
2023-07-18T06:22:25.902Z,100325.88
2023-07-18T06:23:33.113Z,100317.34
2023-07-18T06:24:44.198Z,100319.50
2023-07-18T06:25:51.356Z,100314.59
2023-07-18T06:26:59.908Z,100315.66
2023-07-18T06:28:07.277Z,100307.69
2023-07-18T06:29:12.909Z,100313.47
2023-07-18T06:30:19.972Z,100306.28
2023-07-18T06:31:25.844Z,100305.47
2023-07-18T06:32:35.625Z,100304.06
2023-07-18T06:33:44.563Z,100305.16
2023-07-18T06:35:06.136Z,100304.03
2023-07-18T06:36:20.822Z,100304.03
2023-07-18T06:37:30.154Z,100297.16
2023-07-18T06:38:40.633Z,100293.81
2023-07-18T06:39:47.452Z,100299.84
2023-07-18T06:40:53.370Z,100305.63
2023-07-18T06:42:03.392Z,100295.47
2023-07-18T06:43:13.496Z,100288.09
2023-07-18T06:44:23.970Z,100290.28
2023-07-18T06:45:34.514Z,100289.75
2023-07-18T06:46:43.764Z,100280.44
2023-07-18T06:47:49.877Z,100280.44
2023-07-18T06:48:58.645Z,100271.09
2023-07-18T06:50:04.651Z,100277.69
2023-07-18T06:51:14.412Z,100274.13
2023-07-18T06:52:22.881Z,100274.94
2023-07-18T06:53:32.798Z,100265.88
2023-07-18T06:54:41.439Z,100261.22
2023-07-18T06:56:06.845Z,100262.03
2023-07-18T06:57:23.838Z,100256.00
2023-07-18T06:58:30.130Z,100249.41
2023-07-18T06:59:37.197Z,100249.41
2023-07-18T07:00:59.570Z,100249.72
2023-07-18T07:02:08.408Z,100248.88
2023-07-18T07:03:14.295Z,100253.56
2023-07-18T07:04:38.899Z,100249.72
2023-07-18T07:05:50.916Z,100248.06
2023-07-18T07:06:58.613Z,100248.88
2023-07-18T07:08:15.311Z,100242.56
2023-07-18T07:09:21.167Z,100246.94
2023-07-18T07:10:41.848Z,100244.50
2023-07-18T07:11:48.902Z,100240.38
2023-07-18T07:12:55.523Z,100243.69
2023-07-18T07:14:06.284Z,100237.09
2023-07-18T07:15:14.993Z,100232.97
2023-07-18T07:16:22.194Z,100232.97
2023-07-18T07:17:49.209Z,100226.09
2023-07-18T07:18:55.965Z,100228.03
2023-07-18T07:20:03.503Z,100236.56
2023-07-18T07:21:16.163Z,100231.06
2023-07-18T07:22:23.944Z,100229.13
2023-07-18T07:23:31.018Z,100222.81
2023-07-18T07:24:41.363Z,100219.47
2023-07-18T07:25:51.278Z,100223.91
2023-07-18T07:27:00.274Z,100211.00
2023-07-18T07:28:07.110Z,100217.31
2023-07-18T07:29:18.338Z,100223.88
2023-07-18T07:30:33.804Z,100212.88
2023-07-18T07:31:39.895Z,100208.47
2023-07-18T07:32:47.647Z,100206.28
2023-07-18T07:33:53.248Z,100215.09
2023-07-18T07:35:05.734Z,100216.72
2023-07-18T07:36:12.956Z,100212.34
2023-07-18T07:37:26.417Z,100213.44
2023-07-18T07:38:34.927Z,100201.34
2023-07-18T07:40:01.579Z,100199.44
2023-07-18T07:41:19.614Z,100194.25
2023-07-18T07:42:25.321Z,100197.00
2023-07-18T07:43:35.836Z,100191.22
2023-07-18T07:44:50.254Z,100200.28
2023-07-18T07:45:58.673Z,100209.31
2023-07-18T07:47:06.062Z,100202.22
2023-07-18T07:48:19.234Z,100201.66
2023-07-18T07:49:37.907Z,100196.47
2023-07-18T07:50:46.502Z,100198.63
2023-07-18T07:52:01.405Z,100188.75
2023-07-18T07:53:13.245Z,100202.50
2023-07-18T07:54:21.589Z,100198.13
2023-07-18T07:55:44.965Z,100191.81
2023-07-18T07:56:51.930Z,100186.88
2023-07-18T07:58:00.496Z,100194.00
2023-07-18T07:59:15.800Z,100189.34
2023-07-18T08:00:27.634Z,100189.88
2023-07-18T08:01:37.301Z,100180.81
2023-07-18T08:02:45.799Z,100181.88
2023-07-18T08:03:52.947Z,100179.41
2023-07-18T08:04:58.438Z,100178.88
2023-07-18T08:06:11.196Z,100172.00
2023-07-18T08:07:18.922Z,100182.72
2023-07-18T08:08:26.690Z,100180.81
2023-07-18T08:09:37.945Z,100182.16
2023-07-18T08:10:50.369Z,100175.03
2023-07-18T08:11:55.823Z,100173.09
2023-07-18T08:13:05.689Z,100165.66
2023-07-18T08:14:16.324Z,100176.38
2023-07-18T08:15:30.815Z,100184.06
2023-07-18T08:16:36.525Z,100177.75
2023-07-18T08:17:46.392Z,100171.44
2023-07-18T08:18:54.925Z,100170.84
2023-07-18T08:20:02.470Z,100162.38
2023-07-18T08:21:09.510Z,100176.66
2023-07-18T08:22:16.377Z,100167.28
2023-07-18T08:23:26.161Z,100178.56
2023-07-18T08:24:33.276Z,100175.81
2023-07-18T08:25:41.063Z,100176.94
2023-07-18T08:26:52.544Z,100176.09
2023-07-18T08:28:01.681Z,100171.44
2023-07-18T08:29:08.643Z,100175.63
2023-07-18T08:30:17.420Z,100173.16
2023-07-18T08:31:34.347Z,100171.28
2023-07-18T08:32:43.307Z,100168.53
2023-07-18T08:33:50.682Z,100174.84
2023-07-18T08:34:58.883Z,100176.50
2023-07-18T08:36:05.760Z,100164.44
2023-07-18T08:37:12.031Z,100163.91
2023-07-18T08:38:18.865Z,100166.38
2023-07-18T08:39:26.365Z,100158.16
2023-07-18T08:40:34.286Z,100166.94
2023-07-18T08:41:44.649Z,100152.13
2023-07-18T08:43:07.202Z,100157.63
2023-07-18T08:44:14.999Z,100144.19
2023-07-18T08:45:20.607Z,100149.38
2023-07-18T08:46:29.938Z,100152.09
2023-07-18T08:47:35.656Z,100149.38
2023-07-18T08:48:45.878Z,100144.97
2023-07-18T08:49:51.766Z,100148.53
2023-07-18T08:51:01.144Z,100152.69
2023-07-18T08:52:07.097Z,100154.34
2023-07-18T08:53:18.439Z,100151.59
2023-07-18T08:54:34.715Z,100148.56
2023-07-18T08:55:44.415Z,100150.25
2023-07-18T08:56:52.160Z,100148.84
2023-07-18T08:58:01.786Z,100151.88
2023-07-18T08:59:10.424Z,100150.25
2023-07-18T09:00:22.758Z,100139.53
2023-07-18T09:01:30.719Z,100146.66
2023-07-18T09:02:37.848Z,100145.28
2023-07-18T09:03:45.029Z,100149.38
2023-07-18T09:05:00.050Z,100148.56
2023-07-18T09:06:18.583Z,100153.22
2023-07-18T09:07:29.821Z,100147.44
2023-07-18T09:08:44.980Z,100144.19
2023-07-18T09:10:05.910Z,100142.53
2023-07-18T09:12:35.725Z,100141.94
2023-07-18T09:13:46.443Z,100149.88
2023-07-18T09:15:00.303Z,100147.69
2023-07-18T09:16:15.241Z,100140.59
2023-07-18T09:17:24.897Z,100143.34
2023-07-18T09:18:34.057Z,100143.38
2023-07-18T09:19:42.212Z,100137.88
2023-07-18T09:20:47.857Z,100139.81
2023-07-18T09:22:09.806Z,100148.84
2023-07-18T09:23:17.705Z,100138.38
2023-07-18T09:24:27.829Z,100147.44
2023-07-18T09:25:43.913Z,100144.16
2023-07-18T09:26:56.916Z,100147.72
2023-07-18T09:28:05.588Z,100152.41
2023-07-18T09:29:15.916Z,100150.75
2023-07-18T09:32:00.266Z,100147.50
2023-07-18T09:33:07.855Z,100149.38
2023-07-18T09:34:16.946Z,100149.94
2023-07-18T09:35:24.945Z,100153.81
2023-07-18T09:36:36.758Z,100142.81
2023-07-18T09:37:53.129Z,100149.38
2023-07-18T09:39:01.387Z,100151.06
2023-07-18T09:40:09.765Z,100142.25
2023-07-18T09:41:32.758Z,100145.59
2023-07-18T09:42:45.390Z,100143.66
2023-07-18T09:43:56.105Z,100148.88
2023-07-18T09:45:14.379Z,100144.50
2023-07-18T09:46:22.700Z,100139.56
2023-07-18T09:47:38.074Z,100130.25
2023-07-18T09:48:55.726Z,100125.84
2023-07-18T09:50:05.306Z,100136.00
2023-07-18T09:51:15.782Z,100137.09
2023-07-18T09:52:28.422Z,100142.88
2023-07-18T09:53:37.071Z,100117.34
2023-07-18T09:54:44.284Z,100133.28
2023-07-18T09:55:52.969Z,100128.88
2023-07-18T09:57:03.080Z,100130.53
2023-07-18T09:58:10.081Z,100132.19
2023-07-18T09:59:19.421Z,100138.47
2023-07-18T10:00:26.790Z,100130.25
2023-07-18T10:01:34.399Z,100125.59
2023-07-18T10:02:49.464Z,100129.16
2023-07-18T10:03:57.070Z,100130.53
2023-07-18T10:05:06.574Z,100136.84
2023-07-18T10:06:15.722Z,100135.75
2023-07-18T10:25:23.314Z,100147.56
2023-07-18T10:26:38.136Z,100148.91
2023-07-18T10:27:45.950Z,100152.75
2023-07-18T10:28:54.389Z,100153.03
2023-07-18T10:30:10.560Z,100152.22
2023-07-18T10:31:40.062Z,100152.22
2023-07-18T10:32:47.266Z,100150.53
2023-07-18T10:34:10.567Z,100158.75
2023-07-18T10:35:22.786Z,100156.03
2023-07-18T10:36:31.538Z,100161.78
2023-07-18T10:37:41.990Z,100165.34
2023-07-18T10:38:53.825Z,100168.91
2023-07-18T10:40:07.637Z,100160.97
2023-07-18T10:41:14.927Z,100162.88
2023-07-18T10:42:23.719Z,100158.50
2023-07-18T10:43:30.508Z,100158.75
2023-07-18T10:44:39.329Z,100161.78
2023-07-18T10:45:55.200Z,100165.63
2023-07-18T10:47:01.164Z,100160.16
2023-07-18T10:48:16.734Z,100165.91
2023-07-18T10:49:28.382Z,100165.91
2023-07-18T10:50:38.423Z,100167.00
2023-07-18T10:51:52.488Z,100162.59
2023-07-18T10:53:03.515Z,100169.19
2023-07-18T10:54:11.883Z,100157.69
2023-07-18T10:55:24.777Z,100160.72
2023-07-18T10:56:35.832Z,100162.63
2023-07-18T10:57:51.334Z,100159.31
2023-07-18T10:58:58.657Z,100179.31
2023-07-18T11:00:10.126Z,100184.00
2023-07-18T11:01:15.571Z,100181.81
2023-07-18T11:02:24.135Z,100189.75
2023-07-18T11:03:33.929Z,100185.38
2023-07-18T11:04:43.133Z,100193.84
2023-07-18T11:05:51.730Z,100189.75
2023-07-18T11:07:00.865Z,100192.47
2023-07-18T11:08:06.305Z,100192.75
2023-07-18T11:09:16.730Z,100195.75
2023-07-18T11:10:22.272Z,100197.66
2023-07-18T11:11:29.216Z,100196.03
2023-07-18T11:12:36.599Z,100193.28
2023-07-18T11:13:45.630Z,100189.19
2023-07-18T11:14:50.908Z,100196.84
2023-07-18T11:15:57.837Z,100194.09
2023-07-18T11:17:04.123Z,100207.81
2023-07-18T11:18:11.645Z,100205.91
2023-07-18T11:19:19.535Z,100205.06
2023-07-18T11:20:27.088Z,100201.50
2023-07-18T11:21:36.116Z,100211.66
2023-07-18T11:22:42.970Z,100215.47
2023-07-18T11:23:51.610Z,100214.66
2023-07-18T11:25:01.280Z,100224.81
2023-07-18T11:26:18.096Z,100223.16
2023-07-18T11:27:27.875Z,100226.16
2023-07-18T11:28:39.790Z,100230.81
2023-07-18T11:29:47.814Z,100227.53
2023-07-18T11:30:55.107Z,100233.28
2023-07-18T11:32:05.984Z,100236.28
2023-07-18T11:33:16.226Z,100245.88
2023-07-18T11:34:34.448Z,100240.38
2023-07-18T11:35:39.921Z,100248.06
2023-07-18T11:36:49.726Z,100249.97
2023-07-18T11:37:59.036Z,100254.63
2023-07-18T11:39:06.707Z,100250.22
2023-07-18T11:40:13.227Z,100252.72
2023-07-18T11:41:22.275Z,100252.97
2023-07-18T11:42:28.153Z,100254.03
2023-07-18T11:43:40.513Z,100255.94
2023-07-18T11:44:47.394Z,100252.41
2023-07-18T11:46:00.506Z,100260.06
2023-07-18T11:47:06.039Z,100253.78
2023-07-18T11:48:15.696Z,100258.41
2023-07-18T11:49:21.567Z,100255.66
2023-07-18T11:50:31.826Z,100258.41
2023-07-18T11:51:37.504Z,100263.06
2023-07-18T11:52:46.789Z,100264.16
2023-07-18T11:53:55.014Z,100269.91
2023-07-18T11:55:01.897Z,100275.66
2023-07-18T11:56:12.071Z,100273.75
2023-07-18T11:57:20.537Z,100280.03
2023-07-18T11:58:27.043Z,100281.13
2023-07-18T11:59:37.363Z,100283.31
2023-07-18T12:00:42.965Z,100288.22
2023-07-18T12:01:54.990Z,100294.81
2023-07-18T12:03:00.623Z,100295.91
2023-07-18T12:04:18.484Z,100298.88
2023-07-18T12:05:25.997Z,100295.31
2023-07-18T12:06:33.914Z,100303.53
2023-07-18T12:07:40.395Z,100317.81
2023-07-18T12:08:51.160Z,100309.59
2023-07-18T12:09:59.607Z,100308.75
2023-07-18T12:11:12.318Z,100309.03
2023-07-18T12:12:21.783Z,100318.34
2023-07-18T12:13:28.714Z,100320.25
2023-07-18T12:14:38.175Z,100320.53
2023-07-18T12:15:45.183Z,100315.28
2023-07-18T12:16:50.695Z,100319.13
2023-07-18T12:17:57.763Z,100313.38
2023-07-18T12:19:03.344Z,100319.72
2023-07-18T12:20:11.716Z,100321.88
2023-07-18T12:21:17.802Z,100327.34
2023-07-18T12:22:28.561Z,100322.13
2023-07-18T12:23:34.296Z,100332.53
2023-07-18T12:24:44.674Z,100327.31
2023-07-18T12:25:50.552Z,100322.94
2023-07-18T12:26:57.374Z,100329.78
2023-07-18T12:28:08.964Z,100327.28
2023-07-18T12:29:19.484Z,100325.63
2023-07-18T12:30:30.819Z,100328.09
2023-07-18T12:31:39.111Z,100327.53
2023-07-18T12:32:44.766Z,100326.69
2023-07-18T12:33:51.670Z,100320.66
2023-07-18T12:34:57.108Z,100327.25
2023-07-18T12:36:03.859Z,100323.91
2023-07-18T12:37:09.350Z,100327.75
2023-07-18T12:38:16.225Z,100335.41
2023-07-18T12:39:21.960Z,100325.56
2023-07-18T12:40:28.993Z,100327.72
2023-07-18T12:41:34.554Z,100330.72
2023-07-18T12:42:41.346Z,100328.00
2023-07-18T12:43:46.827Z,100323.88
2023-07-18T12:44:54.325Z,100323.88
2023-07-18T12:46:01.991Z,100324.69
2023-07-18T12:47:12.308Z,100328.78
2023-07-18T12:48:17.881Z,100331.78
2023-07-18T12:50:33.142Z,100338.81
2023-07-18T12:51:40.427Z,100328.97
2023-07-18T12:52:48.685Z,100334.72
2023-07-18T12:53:56.602Z,100336.88
2023-07-18T12:55:02.166Z,100344.25
2023-07-18T12:56:09.186Z,100348.34
2023-07-18T12:57:15.007Z,100348.63
2023-07-18T12:58:21.817Z,100352.44
2023-07-18T12:59:27.651Z,100349.44
2023-07-18T13:00:34.456Z,100345.06
2023-07-18T13:01:41.756Z,100349.97
2023-07-18T13:02:49.428Z,100350.78
2023-07-18T13:03:55.030Z,100352.44
2023-07-18T13:05:01.924Z,100355.44
2023-07-18T13:06:09.112Z,100348.31
2023-07-18T13:07:29.364Z,100343.66
2023-07-18T13:08:36.224Z,100351.06
2023-07-18T13:09:41.794Z,100349.41
2023-07-18T13:10:48.686Z,100352.41
2023-07-18T13:11:55.268Z,100352.41
2023-07-18T13:13:02.256Z,100347.75
2023-07-18T13:14:07.844Z,100349.69
2023-07-18T13:15:15.669Z,100352.66
2023-07-18T13:16:21.427Z,100356.47
2023-07-18T13:17:30.368Z,100350.44
2023-07-18T13:18:38.926Z,100351.53
2023-07-18T13:19:48.852Z,100349.09
2023-07-18T13:20:54.505Z,100353.75
2023-07-18T13:22:01.423Z,100360.03
2023-07-18T13:23:07.060Z,100352.66
2023-07-18T13:24:14.158Z,100345.53
2023-07-18T13:25:22.836Z,100348.28
2023-07-18T13:26:30.157Z,100345.81
2023-07-18T13:27:39.156Z,100351.28
2023-07-18T13:28:47.335Z,100341.97
2023-07-18T13:29:52.885Z,100345.81
2023-07-18T13:31:05.712Z,100344.72
2023-07-18T13:32:11.648Z,100341.16
2023-07-18T13:33:20.293Z,100340.34
2023-07-18T13:34:25.803Z,100342.25
2023-07-18T13:35:33.234Z,100348.81
2023-07-18T13:36:41.463Z,100345.22
2023-07-18T13:37:48.450Z,100348.81
2023-07-18T13:38:53.878Z,100337.88
2023-07-18T13:40:01.790Z,100346.06
2023-07-18T13:41:12.536Z,100347.94
2023-07-18T13:42:25.391Z,100350.13
2023-07-18T13:43:31.079Z,100352.06
2023-07-18T13:44:41.035Z,100351.50
2023-07-18T13:45:46.774Z,100351.50
2023-07-18T13:46:53.797Z,100352.56
2023-07-18T13:47:59.549Z,100344.63
2023-07-18T13:49:10.409Z,100352.81
2023-07-18T13:50:30.488Z,100357.47